createdAt,value
2023-02-13T00:04:50.811Z,18.27
2023-02-13T00:09:54.816Z,19.23
2023-02-13T00:14:59.110Z,18.57
2023-02-13T00:20:01.807Z,19.50
2023-02-13T00:25:06.960Z,19.33
2023-02-13T00:30:10.526Z,18.80
2023-02-13T00:35:13.225Z,18.07
2023-02-13T00:40:17.267Z,17.37
2023-02-13T00:45:19.901Z,18.03
2023-02-13T00:50:22.547Z,18.90
2023-02-13T00:55:26.628Z,18.23
2023-02-13T01:00:29.281Z,18.07
2023-02-13T01:05:32.164Z,17.20
2023-02-13T01:10:37.771Z,16.50
2023-02-13T01:15:40.895Z,16.17
2023-02-13T01:20:44.734Z,17.27
2023-02-13T01:25:48.699Z,17.63
2023-02-13T01:30:55.107Z,16.57
2023-02-13T01:35:58.129Z,16.80
2023-02-13T01:41:02.233Z,17.07
2023-02-13T01:46:04.979Z,15.87
2023-02-13T01:51:10.776Z,16.10
2023-02-13T01:56:19.003Z,15.70
2023-02-13T02:01:22.821Z,16.47
2023-02-13T02:06:29.122Z,16.23
2023-02-13T02:11:38.541Z,15.57
2023-02-13T02:16:41.209Z,15.37
2023-02-13T02:22:17.148Z,15.43
2023-02-13T02:27:47.812Z,15.47
2023-02-13T02:33:00.241Z,16.13
2023-02-13T02:38:12.931Z,15.00
2023-02-13T02:43:29.600Z,14.93
2023-02-13T02:48:58.869Z,15.13
2023-02-13T02:54:30.258Z,14.30
2023-02-13T02:59:51.577Z,14.87
2023-02-13T03:05:28.886Z,14.90
2023-02-13T03:10:53.773Z,14.73
2023-02-13T03:16:19.621Z,14.03
2023-02-13T03:21:51.444Z,14.83
2023-02-13T03:27:02.329Z,14.13
2023-02-13T03:32:12.702Z,16.00
2023-02-13T03:37:36.797Z,15.67
2023-02-13T03:42:46.314Z,15.37
2023-02-13T03:47:51.610Z,15.03
2023-02-13T03:52:59.830Z,15.70
2023-02-13T03:58:25.081Z,16.20
2023-02-13T04:03:32.402Z,17.37
2023-02-13T04:08:36.546Z,16.50
2023-02-13T04:13:44.522Z,16.77
2023-02-13T04:18:49.318Z,16.20
2023-02-13T04:31:03.378Z,17.70
2023-02-13T05:14:24.266Z,18.07
2023-02-13T05:45:17.494Z,20.90
2023-02-13T05:51:10.446Z,19.20
2023-02-13T06:15:24.281Z,16.97
2023-02-13T06:20:46.824Z,17.33
2023-02-13T07:02:36.453Z,17.33
2023-02-13T07:38:33.693Z,16.57
2023-02-13T07:43:36.402Z,16.87
2023-02-13T07:48:39.079Z,16.70
2023-02-13T07:53:43.034Z,17.33
2023-02-13T07:58:45.835Z,16.93
2023-02-13T08:03:51.738Z,18.13
2023-02-13T08:09:09.777Z,16.37
2023-02-13T08:14:12.496Z,17.93
2023-02-13T08:19:15.173Z,16.63
2023-02-13T08:24:19.229Z,16.40
2023-02-13T08:29:21.897Z,16.73
2023-02-13T08:34:24.684Z,16.40
2023-02-13T08:39:28.632Z,15.20
2023-02-13T08:44:31.565Z,15.33
2023-02-13T08:49:34.486Z,15.27
2023-02-13T08:54:38.449Z,14.47
2023-02-13T08:59:41.474Z,15.60
2023-02-13T09:04:44.138Z,15.30
2023-02-13T09:09:48.215Z,13.93
2023-02-13T09:14:50.870Z,13.33
2023-02-13T09:19:53.545Z,13.87
2023-02-13T09:24:59.184Z,13.57
2023-02-13T09:30:01.942Z,12.83
2023-02-13T09:35:06.494Z,12.97
2023-02-13T09:40:19.000Z,12.87
2023-02-13T09:45:22.914Z,12.20
2023-02-13T09:50:28.262Z,11.27
2023-02-13T09:55:40.914Z,11.67
2023-02-13T10:00:47.094Z,11.70
2023-02-13T10:06:01.119Z,12.67
2023-02-13T10:11:23.036Z,12.33
2023-02-13T10:16:29.940Z,11.43
2023-02-13T10:21:37.226Z,11.97
2023-02-13T10:26:45.449Z,11.33
2023-02-13T10:31:50.697Z,12.03
2023-02-13T10:36:53.498Z,11.27
2023-02-13T10:42:06.596Z,10.27
2023-02-13T10:47:20.214Z,10.33
2023-02-13T10:52:32.527Z,11.70
2023-02-13T10:57:58.343Z,10.33
2023-02-13T11:03:01.379Z,9.33
2023-02-13T11:08:04.610Z,8.10
2023-02-13T11:13:19.743Z,8.03
2023-02-13T11:18:24.656Z,8.03
2023-02-13T11:23:37.280Z,7.17
2023-02-13T11:28:50.635Z,7.50
2023-02-13T11:33:53.648Z,7.53
2023-02-13T11:39:01.613Z,7.10
2023-02-13T11:44:06.106Z,7.60
2023-02-13T11:49:18.266Z,7.13
2023-02-13T11:54:31.895Z,8.13
2023-02-13T11:59:42.851Z,8.13
2023-02-13T12:04:46.241Z,8.00
2023-02-13T12:09:53.899Z,8.20
2023-02-13T12:14:59.227Z,6.43
2023-02-13T12:20:02.294Z,5.37
2023-02-13T12:25:46.167Z,6.53
2023-02-13T12:31:14.827Z,5.77
2023-02-13T12:36:22.256Z,6.47
2023-02-13T12:41:32.617Z,5.90
2023-02-13T12:46:45.357Z,6.00
2023-02-13T12:51:54.701Z,6.23
2023-02-13T12:57:12.635Z,5.30
2023-02-13T13:03:06.603Z,5.80
2023-02-13T13:08:37.131Z,5.80
2023-02-13T13:13:53.193Z,5.60
2023-02-13T13:19:08.870Z,5.50
2023-02-13T13:24:25.695Z,5.20
2023-02-13T13:29:43.673Z,4.80
2023-02-13T13:34:48.203Z,4.63
2023-02-13T13:53:08.777Z,6.20
2023-02-13T13:59:10.279Z,5.80
2023-02-13T14:28:57.460Z,5.23
2023-02-13T14:34:02.488Z,5.30
2023-02-13T14:39:08.394Z,5.73
2023-02-13T14:44:17.902Z,6.37
2023-02-13T14:49:24.100Z,6.43
2023-02-13T14:54:30.523Z,5.77
2023-02-13T14:59:37.820Z,6.90
2023-02-13T15:04:43.907Z,7.60
2023-02-13T15:09:52.459Z,7.27
2023-02-13T15:14:56.632Z,8.37
2023-02-13T15:20:05.878Z,7.67
2023-02-13T15:25:10.006Z,9.23
2023-02-13T15:30:23.680Z,8.43
2023-02-13T15:35:28.991Z,8.83
2023-02-13T15:40:37.826Z,8.17
2023-02-13T15:45:44.477Z,9.27
2023-02-13T15:50:48.091Z,9.10
2023-02-13T15:55:58.573Z,9.00
2023-02-13T16:01:07.329Z,9.73
2023-02-13T16:06:15.679Z,10.47
2023-02-13T16:11:31.416Z,10.97
2023-02-13T16:16:42.945Z,9.93
2023-02-13T16:21:49.833Z,10.33
2023-02-13T16:26:52.950Z,9.43
2023-02-13T16:32:11.474Z,9.53
2023-02-13T16:37:31.083Z,9.53
2023-02-13T16:42:33.759Z,10.60
2023-02-13T16:47:37.777Z,11.03
2023-02-13T16:52:40.476Z,10.57
2023-02-13T16:57:44.266Z,10.73
2023-02-13T17:02:50.668Z,10.37
2023-02-13T17:07:57.026Z,11.83
2023-02-13T17:13:02.458Z,10.83
2023-02-13T17:18:06.669Z,11.13
2023-02-13T17:23:17.250Z,11.77
2023-02-13T17:28:22.529Z,11.57
2023-02-13T17:33:28.613Z,12.03
2023-02-13T17:38:31.285Z,13.33
2023-02-13T17:43:33.960Z,12.27
2023-02-13T17:48:37.941Z,11.93
2023-02-13T17:53:40.906Z,14.13
2023-02-13T17:58:43.560Z,12.77
2023-02-13T18:03:47.532Z,14.50
2023-02-13T18:08:50.184Z,14.30
2023-02-13T18:13:53.212Z,13.70
2023-02-13T18:18:57.546Z,14.43
2023-02-13T18:24:00.193Z,14.50
2023-02-13T18:29:02.888Z,13.53
2023-02-13T18:34:07.064Z,15.60
2023-02-13T18:39:09.745Z,15.20
2023-02-13T18:44:23.328Z,15.27
2023-02-13T18:49:32.054Z,14.73
2023-02-13T18:54:34.918Z,15.73
2023-02-13T18:59:37.659Z,15.77
2023-02-13T19:04:41.872Z,15.50
2023-02-13T19:09:46.754Z,16.37
2023-02-13T19:14:49.525Z,15.10
2023-02-13T22:02:33.421Z,17.80
2023-02-13T22:07:57.831Z,18.53
2023-02-13T22:13:00.561Z,18.37
2023-02-13T22:18:03.227Z,17.73
2023-02-13T22:23:07.249Z,18.13
2023-02-13T22:28:09.984Z,18.97
2023-02-13T22:33:12.702Z,18.50
2023-02-13T22:38:16.704Z,17.43
2023-02-13T22:43:19.455Z,18.23
2023-02-13T22:48:22.079Z,19.17
2023-02-13T22:53:26.211Z,18.87
2023-02-13T22:58:29.211Z,19.63
2023-02-13T23:03:33.430Z,21.23
2023-02-13T23:08:38.593Z,18.40
2023-02-13T23:13:42.244Z,19.20
2023-02-13T23:18:47.655Z,18.03
2023-02-13T23:23:51.898Z,18.93
2023-02-13T23:28:54.538Z,18.67
2023-02-13T23:33:57.275Z,19.50
2023-02-13T23:39:04.094Z,18.67
2023-02-13T23:44:06.777Z,19.77
2023-02-13T23:49:09.497Z,19.10
2023-02-13T23:54:16.799Z,18.40
2023-02-13T23:59:20.310Z,19.53
